sensor_id;sensor_type;location;lat;lon;timestamp;P1;durP1;ratioP1;P2;durP2;ratioP2
2966;SDS011;1493;51.496;7.210;2023-06-10T00:00:21;10.60;;;6.13;;
2966;SDS011;1493;51.496;7.210;2023-06-10T00:02:48;6.70;;;6.10;;
2966;SDS011;1493;51.496;7.210;2023-06-10T00:05:15;6.53;;;5.93;;
2966;SDS011;1493;51.496;7.210;2023-06-10T00:07:46;7.17;;;6.33;;
2966;SDS011;1493;51.496;7.210;2023-06-10T00:10:14;6.43;;;5.83;;
2966;SDS011;1493;51.496;7.210;2023-06-10T00:12:42;6.50;;;5.90;;
2966;SDS011;1493;51.496;7.210;2023-06-10T00:15:09;6.83;;;6.13;;
2966;SDS011;1493;51.496;7.210;2023-06-10T00:17:36;6.73;;;5.77;;
2966;SDS011;1493;51.496;7.210;2023-06-10T00:20:04;6.70;;;6.10;;
2966;SDS011;1493;51.496;7.210;2023-06-10T00:22:34;6.20;;;5.60;;
2966;SDS011;1493;51.496;7.210;2023-06-10T00:25:01;6.40;;;5.80;;
2966;SDS011;1493;51.496;7.210;2023-06-10T00:27:28;6.40;;;5.70;;
2966;SDS011;1493;51.496;7.210;2023-06-10T00:30:01;7.33;;;6.73;;
2966;SDS011;1493;51.496;7.210;2023-06-10T00:32:29;6.43;;;5.83;;
2966;SDS011;1493;51.496;7.210;2023-06-10T00:34:56;10.73;;;6.00;;
2966;SDS011;1493;51.496;7.210;2023-06-10T00:37:23;6.70;;;6.00;;
2966;SDS011;1493;51.496;7.210;2023-06-10T00:39:49;8.37;;;5.83;;
2966;SDS011;1493;51.496;7.210;2023-06-10T00:42:16;7.50;;;6.57;;
2966;SDS011;1493;51.496;7.210;2023-06-10T00:44:44;7.80;;;5.97;;
2966;SDS011;1493;51.496;7.210;2023-06-10T00:47:12;8.13;;;7.20;;
2966;SDS011;1493;51.496;7.210;2023-06-10T00:49:39;9.57;;;6.40;;
2966;SDS011;1493;51.496;7.210;2023-06-10T00:52:06;7.07;;;6.37;;
2966;SDS011;1493;51.496;7.210;2023-06-10T00:54:35;7.07;;;6.17;;
2966;SDS011;1493;51.496;7.210;2023-06-10T00:57:03;8.70;;;6.03;;
2966;SDS011;1493;51.496;7.210;2023-06-10T00:59:31;7.13;;;6.20;;
2966;SDS011;1493;51.496;7.210;2023-06-10T01:01:58;8.00;;;7.13;;
2966;SDS011;1493;51.496;7.210;2023-06-10T01:04:27;9.60;;;7.17;;
2966;SDS011;1493;51.496;7.210;2023-06-10T01:06:54;6.97;;;6.30;;
2966;SDS011;1493;51.496;7.210;2023-06-10T01:09:37;7.10;;;6.10;;
2966;SDS011;1493;51.496;7.210;2023-06-10T01:12:10;6.80;;;6.10;;
2966;SDS011;1493;51.496;7.210;2023-06-10T01:14:42;7.77;;;6.97;;
2966;SDS011;1493;51.496;7.210;2023-06-10T01:17:10;8.97;;;7.10;;
2966;SDS011;1493;51.496;7.210;2023-06-10T01:19:39;7.70;;;7.00;;
2966;SDS011;1493;51.496;7.210;2023-06-10T01:22:10;6.77;;;6.17;;
2966;SDS011;1493;51.496;7.210;2023-06-10T01:24:40;7.67;;;6.63;;
2966;SDS011;1493;51.496;7.210;2023-06-10T01:27:10;7.03;;;5.83;;
2966;SDS011;1493;51.496;7.210;2023-06-10T01:29:41;7.30;;;6.57;;
2966;SDS011;1493;51.496;7.210;2023-06-10T01:32:12;7.43;;;6.23;;
2966;SDS011;1493;51.496;7.210;2023-06-10T01:34:43;8.57;;;7.77;;
2966;SDS011;1493;51.496;7.210;2023-06-10T01:37:13;8.83;;;5.87;;
2966;SDS011;1493;51.496;7.210;2023-06-10T01:39:42;6.97;;;6.37;;
2966;SDS011;1493;51.496;7.210;2023-06-10T01:42:09;7.10;;;6.40;;
2966;SDS011;1493;51.496;7.210;2023-06-10T01:44:38;6.63;;;6.03;;
2966;SDS011;1493;51.496;7.210;2023-06-10T01:47:07;6.83;;;6.23;;
2966;SDS011;1493;51.496;7.210;2023-06-10T01:49:34;8.13;;;6.70;;
2966;SDS011;1493;51.496;7.210;2023-06-10T01:52:01;7.80;;;7.10;;
2966;SDS011;1493;51.496;7.210;2023-06-10T01:54:29;7.20;;;6.50;;
2966;SDS011;1493;51.496;7.210;2023-06-10T01:56:56;8.63;;;6.57;;
2966;SDS011;1493;51.496;7.210;2023-06-10T01:59:23;8.40;;;7.60;;
2966;SDS011;1493;51.496;7.210;2023-06-10T02:01:49;8.83;;;7.20;;
2966;SDS011;1493;51.496;7.210;2023-06-10T02:04:16;10.00;;;7.13;;
2966;SDS011;1493;51.496;7.210;2023-06-10T02:06:43;7.90;;;7.20;;
2966;SDS011;1493;51.496;7.210;2023-06-10T02:09:10;7.90;;;7.20;;
2966;SDS011;1493;51.496;7.210;2023-06-10T02:11:38;8.40;;;7.60;;
2966;SDS011;1493;51.496;7.210;2023-06-10T02:14:05;8.70;;;7.80;;
2966;SDS011;1493;51.496;7.210;2023-06-10T02:16:32;9.07;;;8.20;;
2966;SDS011;1493;51.496;7.210;2023-06-10T02:18:59;8.87;;;8.00;;
2966;SDS011;1493;51.496;7.210;2023-06-10T02:21:25;8.30;;;7.47;;
2966;SDS011;1493;51.496;7.210;2023-06-10T02:23:52;11.13;;;8.07;;
2966;SDS011;1493;51.496;7.210;2023-06-10T02:26:19;9.40;;;8.40;;
2966;SDS011;1493;51.496;7.210;2023-06-10T02:28:47;8.93;;;8.17;;
2966;SDS011;1493;51.496;7.210;2023-06-10T02:31:14;12.73;;;9.77;;
2966;SDS011;1493;51.496;7.210;2023-06-10T02:33:43;10.80;;;8.07;;
2966;SDS011;1493;51.496;7.210;2023-06-10T02:36:10;9.23;;;8.20;;
2966;SDS011;1493;51.496;7.210;2023-06-10T02:38:38;11.07;;;9.60;;
2966;SDS011;1493;51.496;7.210;2023-06-10T02:41:05;12.07;;;9.40;;
2966;SDS011;1493;51.496;7.210;2023-06-10T02:43:32;10.13;;;9.17;;
2966;SDS011;1493;51.496;7.210;2023-06-10T02:46:00;10.07;;;9.10;;
2966;SDS011;1493;51.496;7.210;2023-06-10T02:48:26;10.27;;;9.37;;
2966;SDS011;1493;51.496;7.210;2023-06-10T02:50:54;10.40;;;9.30;;
2966;SDS011;1493;51.496;7.210;2023-06-10T02:53:21;11.33;;;8.90;;
2966;SDS011;1493;51.496;7.210;2023-06-10T02:55:48;10.87;;;9.17;;
2966;SDS011;1493;51.496;7.210;2023-06-10T02:58:14;10.47;;;9.40;;
2966;SDS011;1493;51.496;7.210;2023-06-10T03:00:41;10.77;;;9.77;;
2966;SDS011;1493;51.496;7.210;2023-06-10T03:03:10;10.93;;;9.87;;
2966;SDS011;1493;51.496;7.210;2023-06-10T03:05:37;11.27;;;9.63;;
2966;SDS011;1493;51.496;7.210;2023-06-10T03:08:05;11.13;;;10.03;;
2966;SDS011;1493;51.496;7.210;2023-06-10T03:10:32;11.33;;;10.23;;
2966;SDS011;1493;51.496;7.210;2023-06-10T03:12:58;11.00;;;9.87;;
2966;SDS011;1493;51.496;7.210;2023-06-10T03:15:25;11.10;;;10.00;;
2966;SDS011;1493;51.496;7.210;2023-06-10T03:17:53;13.10;;;10.60;;
2966;SDS011;1493;51.496;7.210;2023-06-10T03:20:22;12.30;;;10.40;;
2966;SDS011;1493;51.496;7.210;2023-06-10T03:22:50;11.80;;;10.70;;
2966;SDS011;1493;51.496;7.210;2023-06-10T03:25:17;11.50;;;10.30;;
2966;SDS011;1493;51.496;7.210;2023-06-10T03:27:46;10.73;;;9.43;;
2966;SDS011;1493;51.496;7.210;2023-06-10T03:30:13;11.70;;;10.60;;
2966;SDS011;1493;51.496;7.210;2023-06-10T03:32:40;12.57;;;10.10;;
2966;SDS011;1493;51.496;7.210;2023-06-10T03:35:07;11.33;;;10.33;;
2966;SDS011;1493;51.496;7.210;2023-06-10T03:37:36;10.90;;;9.80;;
2966;SDS011;1493;51.496;7.210;2023-06-10T03:40:03;10.80;;;9.70;;
2966;SDS011;1493;51.496;7.210;2023-06-10T03:42:30;12.20;;;11.00;;
2966;SDS011;1493;51.496;7.210;2023-06-10T03:44:57;12.10;;;11.00;;
2966;SDS011;1493;51.496;7.210;2023-06-10T03:47:24;11.30;;;10.30;;
2966;SDS011;1493;51.496;7.210;2023-06-10T03:49:51;11.07;;;9.97;;
2966;SDS011;1493;51.496;7.210;2023-06-10T03:52:18;11.37;;;10.30;;
2966;SDS011;1493;51.496;7.210;2023-06-10T03:54:49;12.10;;;10.20;;
2966;SDS011;1493;51.496;7.210;2023-06-10T03:57:16;11.13;;;9.77;;
2966;SDS011;1493;51.496;7.210;2023-06-10T03:59:43;10.43;;;9.43;;
2966;SDS011;1493;51.496;7.210;2023-06-10T04:02:09;11.70;;;10.47;;
2966;SDS011;1493;51.496;7.210;2023-06-10T04:04:36;12.30;;;10.50;;
2966;SDS011;1493;51.496;7.210;2023-06-10T04:07:03;11.23;;;10.07;;
2966;SDS011;1493;51.496;7.210;2023-06-10T04:09:31;11.07;;;8.97;;
2966;SDS011;1493;51.496;7.210;2023-06-10T04:11:59;10.20;;;9.23;;
2966;SDS011;1493;51.496;7.210;2023-06-10T04:14:26;12.20;;;9.70;;
2966;SDS011;1493;51.496;7.210;2023-06-10T04:16:54;10.20;;;9.20;;
2966;SDS011;1493;51.496;7.210;2023-06-10T04:19:20;8.37;;;7.57;;
2966;SDS011;1493;51.496;7.210;2023-06-10T04:21:47;12.23;;;9.50;;
2966;SDS011;1493;51.496;7.210;2023-06-10T04:24:14;9.70;;;8.30;;
2966;SDS011;1493;51.496;7.210;2023-06-10T04:26:41;11.53;;;7.90;;
2966;SDS011;1493;51.496;7.210;2023-06-10T04:29:09;9.40;;;8.43;;
2966;SDS011;1493;51.496;7.210;2023-06-10T04:31:36;7.80;;;7.00;;
2966;SDS011;1493;51.496;7.210;2023-06-10T04:34:02;9.40;;;8.37;;
2966;SDS011;1493;51.496;7.210;2023-06-10T04:36:29;7.80;;;7.10;;
2966;SDS011;1493;51.496;7.210;2023-06-10T04:38:56;9.20;;;8.27;;
2966;SDS011;1493;51.496;7.210;2023-06-10T04:41:23;8.37;;;7.57;;
2966;SDS011;1493;51.496;7.210;2023-06-10T04:43:50;8.33;;;7.53;;
2966;SDS011;1493;51.496;7.210;2023-06-10T04:46:20;9.13;;;7.70;;
2966;SDS011;1493;51.496;7.210;2023-06-10T04:48:46;13.20;;;6.67;;
2966;SDS011;1493;51.496;7.210;2023-06-10T04:51:13;7.40;;;6.67;;
2966;SDS011;1493;51.496;7.210;2023-06-10T04:53:40;12.13;;;8.20;;
2966;SDS011;1493;51.496;7.210;2023-06-10T04:56:07;8.30;;;6.93;;
2966;SDS011;1493;51.496;7.210;2023-06-10T04:58:34;10.77;;;6.50;;
2966;SDS011;1493;51.496;7.210;2023-06-10T05:01:00;7.10;;;6.13;;
2966;SDS011;1493;51.496;7.210;2023-06-10T05:03:29;9.47;;;7.37;;
2966;SDS011;1493;51.496;7.210;2023-06-10T05:05:56;7.60;;;6.87;;
2966;SDS011;1493;51.496;7.210;2023-06-10T05:08:23;8.43;;;7.30;;
2966;SDS011;1493;51.496;7.210;2023-06-10T05:10:50;7.93;;;7.07;;
2966;SDS011;1493;51.496;7.210;2023-06-10T05:13:16;10.87;;;7.00;;
2966;SDS011;1493;51.496;7.210;2023-06-10T05:15:43;9.83;;;7.37;;
2966;SDS011;1493;51.496;7.210;2023-06-10T05:18:11;7.90;;;7.00;;
2966;SDS011;1493;51.496;7.210;2023-06-10T05:20:40;7.53;;;6.73;;
2966;SDS011;1493;51.496;7.210;2023-06-10T05:23:06;8.83;;;7.80;;
2966;SDS011;1493;51.496;7.210;2023-06-10T05:25:33;8.30;;;7.50;;
2966;SDS011;1493;51.496;7.210;2023-06-10T05:28:01;8.30;;;7.50;;
2966;SDS011;1493;51.496;7.210;2023-06-10T05:30:28;10.27;;;7.60;;
2966;SDS011;1493;51.496;7.210;2023-06-10T05:32:55;10.23;;;7.60;;
2966;SDS011;1493;51.496;7.210;2023-06-10T05:35:22;9.33;;;7.70;;
2966;SDS011;1493;51.496;7.210;2023-06-10T05:37:51;8.57;;;6.63;;
2966;SDS011;1493;51.496;7.210;2023-06-10T05:40:29;7.37;;;6.67;;
2966;SDS011;1493;51.496;7.210;2023-06-10T05:43:26;7.87;;;6.70;;
2966;SDS011;1493;51.496;7.210;2023-06-10T05:45:58;7.40;;;6.13;;
2966;SDS011;1493;51.496;7.210;2023-06-10T05:49:30;9.00;;;6.53;;
2966;SDS011;1493;51.496;7.210;2023-06-10T05:54:32;7.83;;;6.03;;
2966;SDS011;1493;51.496;7.210;2023-06-10T05:56:59;7.23;;;6.37;;
2966;SDS011;1493;51.496;7.210;2023-06-10T05:59:26;7.90;;;6.00;;
2966;SDS011;1493;51.496;7.210;2023-06-10T06:01:52;8.00;;;7.20;;
2966;SDS011;1493;51.496;7.210;2023-06-10T06:04:21;6.97;;;5.80;;
2966;SDS011;1493;51.496;7.210;2023-06-10T06:06:48;6.67;;;5.70;;
2966;SDS011;1493;51.496;7.210;2023-06-10T06:09:14;7.87;;;6.50;;
2966;SDS011;1493;51.496;7.210;2023-06-10T06:11:43;6.13;;;5.53;;
2966;SDS011;1493;51.496;7.210;2023-06-10T06:14:10;7.33;;;6.10;;
2966;SDS011;1493;51.496;7.210;2023-06-10T06:16:36;9.17;;;6.13;;
2966;SDS011;1493;51.496;7.210;2023-06-10T06:19:04;9.00;;;6.87;;
2966;SDS011;1493;51.496;7.210;2023-06-10T06:21:30;7.73;;;6.13;;
2966;SDS011;1493;51.496;7.210;2023-06-10T06:23:58;9.30;;;6.23;;
2966;SDS011;1493;51.496;7.210;2023-06-10T06:26:25;7.80;;;5.90;;
2966;SDS011;1493;51.496;7.210;2023-06-10T06:28:53;6.70;;;5.27;;
2966;SDS011;1493;51.496;7.210;2023-06-10T06:31:20;5.77;;;5.17;;
2966;SDS011;1493;51.496;7.210;2023-06-10T06:33:47;5.77;;;4.43;;
2966;SDS011;1493;51.496;7.210;2023-06-10T06:36:14;8.70;;;5.20;;
2966;SDS011;1493;51.496;7.210;2023-06-10T06:38:40;6.00;;;5.37;;
2966;SDS011;1493;51.496;7.210;2023-06-10T06:41:07;6.13;;;5.30;;
2966;SDS011;1493;51.496;7.210;2023-06-10T06:43:34;6.60;;;5.57;;
2966;SDS011;1493;51.496;7.210;2023-06-10T06:46:02;7.50;;;6.10;;
2966;SDS011;1493;51.496;7.210;2023-06-10T06:48:29;6.07;;;5.27;;
2966;SDS011;1493;51.496;7.210;2023-06-10T06:50:56;6.60;;;4.77;;
2966;SDS011;1493;51.496;7.210;2023-06-10T06:53:23;6.33;;;5.23;;
2966;SDS011;1493;51.496;7.210;2023-06-10T06:55:50;8.60;;;4.70;;
2966;SDS011;1493;51.496;7.210;2023-06-10T06:58:17;6.70;;;4.57;;
2966;SDS011;1493;51.496;7.210;2023-06-10T07:00:44;7.53;;;5.40;;
2966;SDS011;1493;51.496;7.210;2023-06-10T07:03:12;6.50;;;5.07;;
2966;SDS011;1493;51.496;7.210;2023-06-10T07:05:39;6.60;;;4.83;;
2966;SDS011;1493;51.496;7.210;2023-06-10T07:08:06;6.40;;;4.47;;
2966;SDS011;1493;51.496;7.210;2023-06-10T07:10:32;6.03;;;4.67;;
2966;SDS011;1493;51.496;7.210;2023-06-10T07:12:59;6.60;;;4.80;;
2966;SDS011;1493;51.496;7.210;2023-06-10T07:15:26;6.17;;;4.37;;
2966;SDS011;1493;51.496;7.210;2023-06-10T07:17:53;8.00;;;4.70;;
2966;SDS011;1493;51.496;7.210;2023-06-10T07:20:21;8.90;;;4.60;;
2966;SDS011;1493;51.496;7.210;2023-06-10T07:22:48;6.43;;;4.70;;
2966;SDS011;1493;51.496;7.210;2023-06-10T07:25:15;7.13;;;5.20;;
2966;SDS011;1493;51.496;7.210;2023-06-10T07:27:42;5.13;;;4.40;;
2966;SDS011;1493;51.496;7.210;2023-06-10T07:30:09;6.90;;;4.60;;
2966;SDS011;1493;51.496;7.210;2023-06-10T07:32:36;6.33;;;5.07;;
2966;SDS011;1493;51.496;7.210;2023-06-10T07:35:05;7.13;;;4.43;;
2966;SDS011;1493;51.496;7.210;2023-06-10T07:37:35;6.93;;;4.70;;
2966;SDS011;1493;51.496;7.210;2023-06-10T07:40:02;5.70;;;4.50;;
2966;SDS011;1493;51.496;7.210;2023-06-10T07:42:30;5.47;;;4.33;;
2966;SDS011;1493;51.496;7.210;2023-06-10T07:44:58;8.80;;;5.50;;
2966;SDS011;1493;51.496;7.210;2023-06-10T07:47:25;6.50;;;5.43;;
2966;SDS011;1493;51.496;7.210;2023-06-10T07:49:51;8.40;;;4.43;;
2966;SDS011;1493;51.496;7.210;2023-06-10T07:52:18;9.70;;;4.30;;
2966;SDS011;1493;51.496;7.210;2023-06-10T07:54:46;5.60;;;4.17;;
2966;SDS011;1493;51.496;7.210;2023-06-10T07:57:13;6.00;;;4.23;;
2966;SDS011;1493;51.496;7.210;2023-06-10T07:59:41;5.53;;;4.70;;
2966;SDS011;1493;51.496;7.210;2023-06-10T08:02:09;5.27;;;4.50;;
2966;SDS011;1493;51.496;7.210;2023-06-10T08:04:36;6.97;;;4.83;;
2966;SDS011;1493;51.496;7.210;2023-06-10T08:07:03;8.77;;;4.10;;
2966;SDS011;1493;51.496;7.210;2023-06-10T08:09:30;6.83;;;4.97;;
2966;SDS011;1493;51.496;7.210;2023-06-10T08:11:58;5.30;;;4.03;;
2966;SDS011;1493;51.496;7.210;2023-06-10T08:14:25;5.50;;;4.33;;
2966;SDS011;1493;51.496;7.210;2023-06-10T08:16:51;8.83;;;5.20;;
2966;SDS011;1493;51.496;7.210;2023-06-10T08:19:18;8.20;;;3.83;;
2966;SDS011;1493;51.496;7.210;2023-06-10T08:21:45;6.43;;;4.20;;
2966;SDS011;1493;51.496;7.210;2023-06-10T08:24:12;7.20;;;4.70;;
2966;SDS011;1493;51.496;7.210;2023-06-10T08:26:41;7.60;;;4.60;;
2966;SDS011;1493;51.496;7.210;2023-06-10T08:29:11;5.80;;;3.73;;
2966;SDS011;1493;51.496;7.210;2023-06-10T08:31:40;6.53;;;4.10;;
2966;SDS011;1493;51.496;7.210;2023-06-10T08:34:08;5.20;;;3.83;;
2966;SDS011;1493;51.496;7.210;2023-06-10T08:36:34;5.50;;;3.90;;
2966;SDS011;1493;51.496;7.210;2023-06-10T08:39:02;7.27;;;4.30;;
2966;SDS011;1493;51.496;7.210;2023-06-10T08:41:29;5.90;;;4.20;;
2966;SDS011;1493;51.496;7.210;2023-06-10T08:44:02;6.07;;;5.00;;
2966;SDS011;1493;51.496;7.210;2023-06-10T08:46:35;10.83;;;5.30;;
2966;SDS011;1493;51.496;7.210;2023-06-10T08:49:03;5.30;;;4.33;;
2966;SDS011;1493;51.496;7.210;2023-06-10T08:51:32;6.40;;;4.40;;
2966;SDS011;1493;51.496;7.210;2023-06-10T08:54:02;5.67;;;4.10;;
2966;SDS011;1493;51.496;7.210;2023-06-10T08:56:32;6.07;;;4.77;;
2966;SDS011;1493;51.496;7.210;2023-06-10T08:59:05;7.13;;;4.60;;
2966;SDS011;1493;51.496;7.210;2023-06-10T09:01:32;5.20;;;4.20;;
2966;SDS011;1493;51.496;7.210;2023-06-10T09:04:00;5.80;;;4.53;;
2966;SDS011;1493;51.496;7.210;2023-06-10T09:06:27;6.63;;;5.33;;
2966;SDS011;1493;51.496;7.210;2023-06-10T09:08:55;7.53;;;4.67;;
2966;SDS011;1493;51.496;7.210;2023-06-10T09:11:23;6.70;;;4.50;;
2966;SDS011;1493;51.496;7.210;2023-06-10T09:13:51;5.93;;;5.00;;
2966;SDS011;1493;51.496;7.210;2023-06-10T09:16:18;6.77;;;3.93;;
2966;SDS011;1493;51.496;7.210;2023-06-10T09:18:45;7.23;;;4.47;;
2966;SDS011;1493;51.496;7.210;2023-06-10T09:21:14;7.77;;;4.90;;
2966;SDS011;1493;51.496;7.210;2023-06-10T09:23:40;5.83;;;4.17;;
2966;SDS011;1493;51.496;7.210;2023-06-10T09:26:09;4.70;;;4.30;;
2966;SDS011;1493;51.496;7.210;2023-06-10T09:28:36;6.50;;;5.53;;
2966;SDS011;1493;51.496;7.210;2023-06-10T09:31:04;6.20;;;4.57;;
2966;SDS011;1493;51.496;7.210;2023-06-10T09:33:32;7.90;;;4.90;;
2966;SDS011;1493;51.496;7.210;2023-06-10T09:36:02;7.30;;;4.03;;
2966;SDS011;1493;51.496;7.210;2023-06-10T09:38:31;6.20;;;4.10;;
2966;SDS011;1493;51.496;7.210;2023-06-10T09:40:59;5.00;;;4.40;;
2966;SDS011;1493;51.496;7.210;2023-06-10T09:43:38;4.83;;;4.23;;
2966;SDS011;1493;51.496;7.210;2023-06-10T09:46:14;7.53;;;4.50;;
2966;SDS011;1493;51.496;7.210;2023-06-10T09:48:42;4.80;;;3.80;;
2966;SDS011;1493;51.496;7.210;2023-06-10T09:51:10;5.70;;;4.23;;
2966;SDS011;1493;51.496;7.210;2023-06-10T09:53:39;6.63;;;4.70;;
2966;SDS011;1493;51.496;7.210;2023-06-10T09:56:07;6.73;;;4.87;;
2966;SDS011;1493;51.496;7.210;2023-06-10T09:58:35;5.93;;;4.47;;
2966;SDS011;1493;51.496;7.210;2023-06-10T10:01:06;6.43;;;4.50;;
2966;SDS011;1493;51.496;7.210;2023-06-10T10:03:40;6.60;;;4.63;;
2966;SDS011;1493;51.496;7.210;2023-06-10T10:06:10;6.33;;;4.80;;
2966;SDS011;1493;51.496;7.210;2023-06-10T10:08:38;5.60;;;4.40;;
2966;SDS011;1493;51.496;7.210;2023-06-10T10:11:05;6.33;;;4.93;;
2966;SDS011;1493;51.496;7.210;2023-06-10T10:13:33;6.47;;;4.70;;
2966;SDS011;1493;51.496;7.210;2023-06-10T10:16:01;5.97;;;4.40;;
2966;SDS011;1493;51.496;7.210;2023-06-10T10:18:35;5.00;;;4.50;;
2966;SDS011;1493;51.496;7.210;2023-06-10T10:21:10;5.57;;;4.80;;
2966;SDS011;1493;51.496;7.210;2023-06-10T10:23:42;5.27;;;4.27;;
2966;SDS011;1493;51.496;7.210;2023-06-10T10:26:18;7.17;;;4.83;;
2966;SDS011;1493;51.496;7.210;2023-06-10T10:28:50;5.00;;;4.50;;
2966;SDS011;1493;51.496;7.210;2023-06-10T10:31:22;6.83;;;4.70;;
2966;SDS011;1493;51.496;7.210;2023-06-10T10:33:51;6.17;;;4.67;;
2966;SDS011;1493;51.496;7.210;2023-06-10T10:36:24;5.60;;;4.40;;
2966;SDS011;1493;51.496;7.210;2023-06-10T10:38:52;6.60;;;5.63;;
2966;SDS011;1493;51.496;7.210;2023-06-10T10:41:20;5.73;;;5.10;;
2966;SDS011;1493;51.496;7.210;2023-06-10T10:43:48;7.73;;;4.77;;
2966;SDS011;1493;51.496;7.210;2023-06-10T10:46:17;10.00;;;4.60;;
2966;SDS011;1493;51.496;7.210;2023-06-10T10:48:44;6.33;;;5.27;;
2966;SDS011;1493;51.496;7.210;2023-06-10T10:51:12;5.53;;;5.00;;
2966;SDS011;1493;51.496;7.210;2023-06-10T10:53:41;5.40;;;4.40;;
2966;SDS011;1493;51.496;7.210;2023-06-10T10:56:13;5.50;;;4.70;;
2966;SDS011;1493;51.496;7.210;2023-06-10T10:58:43;7.30;;;4.70;;
2966;SDS011;1493;51.496;7.210;2023-06-10T11:01:38;6.80;;;5.60;;
2966;SDS011;1493;51.496;7.210;2023-06-10T11:04:06;6.47;;;4.97;;
2966;SDS011;1493;51.496;7.210;2023-06-10T11:06:33;7.10;;;5.17;;
2966;SDS011;1493;51.496;7.210;2023-06-10T11:09:00;5.60;;;4.63;;
2966;SDS011;1493;51.496;7.210;2023-06-10T11:11:50;5.60;;;4.80;;
2966;SDS011;1493;51.496;7.210;2023-06-10T11:14:26;5.73;;;5.23;;
2966;SDS011;1493;51.496;7.210;2023-06-10T11:16:56;6.30;;;5.30;;
2966;SDS011;1493;51.496;7.210;2023-06-10T11:19:33;13.37;;;5.50;;
2966;SDS011;1493;51.496;7.210;2023-06-10T11:22:01;5.43;;;4.63;;
2966;SDS011;1493;51.496;7.210;2023-06-10T11:24:29;9.67;;;4.90;;
2966;SDS011;1493;51.496;7.210;2023-06-10T11:29:57;6.87;;;5.13;;
2966;SDS011;1493;51.496;7.210;2023-06-10T11:32:25;6.70;;;4.83;;
2966;SDS011;1493;51.496;7.210;2023-06-10T11:34:56;5.40;;;4.90;;
2966;SDS011;1493;51.496;7.210;2023-06-10T11:37:23;7.00;;;5.47;;
2966;SDS011;1493;51.496;7.210;2023-06-10T11:39:51;5.90;;;4.73;;
2966;SDS011;1493;51.496;7.210;2023-06-10T11:42:20;5.70;;;5.10;;
2966;SDS011;1493;51.496;7.210;2023-06-10T11:44:48;5.97;;;5.17;;
2966;SDS011;1493;51.496;7.210;2023-06-10T11:47:15;6.50;;;5.23;;
2966;SDS011;1493;51.496;7.210;2023-06-10T11:49:42;8.67;;;5.93;;
2966;SDS011;1493;51.496;7.210;2023-06-10T11:52:09;6.13;;;5.40;;
2966;SDS011;1493;51.496;7.210;2023-06-10T11:54:36;5.20;;;4.73;;
2966;SDS011;1493;51.496;7.210;2023-06-10T11:57:04;8.97;;;5.00;;
2966;SDS011;1493;51.496;7.210;2023-06-10T11:59:34;6.77;;;4.60;;
2966;SDS011;1493;51.496;7.210;2023-06-10T12:02:01;6.00;;;5.13;;
2966;SDS011;1493;51.496;7.210;2023-06-10T12:04:28;5.70;;;5.20;;
2966;SDS011;1493;51.496;7.210;2023-06-10T12:06:55;5.60;;;5.10;;
2966;SDS011;1493;51.496;7.210;2023-06-10T12:09:23;5.17;;;4.70;;
2966;SDS011;1493;51.496;7.210;2023-06-10T12:11:51;6.53;;;5.13;;
2966;SDS011;1493;51.496;7.210;2023-06-10T12:17:23;6.00;;;5.40;;
2966;SDS011;1493;51.496;7.210;2023-06-10T12:20:02;6.00;;;5.40;;
2966;SDS011;1493;51.496;7.210;2023-06-10T12:22:35;6.03;;;5.43;;
2966;SDS011;1493;51.496;7.210;2023-06-10T12:25:03;6.40;;;4.73;;
2966;SDS011;1493;51.496;7.210;2023-06-10T12:27:32;5.10;;;4.60;;
2966;SDS011;1493;51.496;7.210;2023-06-10T12:30:01;7.10;;;5.10;;
2966;SDS011;1493;51.496;7.210;2023-06-10T12:32:36;6.37;;;5.17;;
2966;SDS011;1493;51.496;7.210;2023-06-10T12:35:04;6.33;;;5.03;;
2966;SDS011;1493;51.496;7.210;2023-06-10T12:37:32;5.30;;;4.80;;
2966;SDS011;1493;51.496;7.210;2023-06-10T12:39:59;5.13;;;4.60;;
2966;SDS011;1493;51.496;7.210;2023-06-10T12:42:27;5.47;;;5.00;;
2966;SDS011;1493;51.496;7.210;2023-06-10T12:45:00;5.40;;;4.90;;
2966;SDS011;1493;51.496;7.210;2023-06-10T12:47:31;6.90;;;4.77;;
2966;SDS011;1493;51.496;7.210;2023-06-10T12:50:00;5.40;;;4.77;;
2966;SDS011;1493;51.496;7.210;2023-06-10T12:52:27;6.00;;;5.00;;
2966;SDS011;1493;51.496;7.210;2023-06-10T12:54:56;6.27;;;5.63;;
2966;SDS011;1493;51.496;7.210;2023-06-10T12:57:23;5.60;;;4.80;;
2966;SDS011;1493;51.496;7.210;2023-06-10T13:00:05;5.20;;;4.73;;
2966;SDS011;1493;51.496;7.210;2023-06-10T13:02:33;6.53;;;4.73;;
2966;SDS011;1493;51.496;7.210;2023-06-10T13:05:00;5.70;;;4.73;;
2966;SDS011;1493;51.496;7.210;2023-06-10T13:07:27;6.67;;;5.80;;
2966;SDS011;1493;51.496;7.210;2023-06-10T13:09:55;5.07;;;4.57;;
2966;SDS011;1493;51.496;7.210;2023-06-10T13:12:23;6.57;;;5.70;;
2966;SDS011;1493;51.496;7.210;2023-06-10T13:14:53;5.53;;;5.03;;
2966;SDS011;1493;51.496;7.210;2023-06-10T13:17:23;6.43;;;4.60;;
2966;SDS011;1493;51.496;7.210;2023-06-10T13:19:50;7.53;;;4.80;;
2966;SDS011;1493;51.496;7.210;2023-06-10T13:22:17;6.17;;;5.20;;
2966;SDS011;1493;51.496;7.210;2023-06-10T13:24:45;6.90;;;5.27;;
2966;SDS011;1493;51.496;7.210;2023-06-10T13:27:14;5.97;;;5.23;;
2966;SDS011;1493;51.496;7.210;2023-06-10T13:29:43;9.20;;;5.40;;
2966;SDS011;1493;51.496;7.210;2023-06-10T13:32:10;6.67;;;5.20;;
2966;SDS011;1493;51.496;7.210;2023-06-10T13:34:38;5.13;;;4.60;;
2966;SDS011;1493;51.496;7.210;2023-06-10T13:37:05;5.10;;;4.60;;
2966;SDS011;1493;51.496;7.210;2023-06-10T13:39:32;5.97;;;5.37;;
2966;SDS011;1493;51.496;7.210;2023-06-10T13:41:59;6.93;;;5.10;;
2966;SDS011;1493;51.496;7.210;2023-06-10T13:44:25;7.13;;;5.37;;
2966;SDS011;1493;51.496;7.210;2023-06-10T13:46:55;4.77;;;4.27;;
2966;SDS011;1493;51.496;7.210;2023-06-10T13:49:22;7.83;;;5.27;;
2966;SDS011;1493;51.496;7.210;2023-06-10T13:51:50;5.40;;;4.87;;
2966;SDS011;1493;51.496;7.210;2023-06-10T13:54:17;5.53;;;4.90;;
2966;SDS011;1493;51.496;7.210;2023-06-10T13:56:44;6.20;;;4.93;;
2966;SDS011;1493;51.496;7.210;2023-06-10T13:59:11;5.50;;;4.53;;
2966;SDS011;1493;51.496;7.210;2023-06-10T14:01:37;7.97;;;5.00;;
2966;SDS011;1493;51.496;7.210;2023-06-10T14:04:05;7.60;;;4.80;;
2966;SDS011;1493;51.496;7.210;2023-06-10T14:06:32;4.57;;;4.17;;
2966;SDS011;1493;51.496;7.210;2023-06-10T14:09:00;5.27;;;4.77;;
2966;SDS011;1493;51.496;7.210;2023-06-10T14:11:27;7.57;;;4.80;;
2966;SDS011;1493;51.496;7.210;2023-06-10T14:13:54;5.30;;;4.50;;
2966;SDS011;1493;51.496;7.210;2023-06-10T14:16:21;5.73;;;4.87;;
2966;SDS011;1493;51.496;7.210;2023-06-10T14:18:48;6.30;;;4.50;;
2966;SDS011;1493;51.496;7.210;2023-06-10T14:21:15;4.17;;;3.73;;
2966;SDS011;1493;51.496;7.210;2023-06-10T14:23:45;6.47;;;5.33;;
2966;SDS011;1493;51.496;7.210;2023-06-10T14:26:18;4.87;;;4.37;;
2966;SDS011;1493;51.496;7.210;2023-06-10T14:28:46;5.47;;;4.47;;
2966;SDS011;1493;51.496;7.210;2023-06-10T14:31:14;5.70;;;4.40;;
2966;SDS011;1493;51.496;7.210;2023-06-10T14:33:41;6.07;;;5.47;;
2966;SDS011;1493;51.496;7.210;2023-06-10T14:36:10;6.20;;;5.03;;
2966;SDS011;1493;51.496;7.210;2023-06-10T14:38:37;6.80;;;4.00;;
2966;SDS011;1493;51.496;7.210;2023-06-10T14:41:04;4.87;;;4.43;;
2966;SDS011;1493;51.496;7.210;2023-06-10T14:43:32;6.17;;;5.57;;
2966;SDS011;1493;51.496;7.210;2023-06-10T14:45:59;4.77;;;4.30;;
2966;SDS011;1493;51.496;7.210;2023-06-10T14:48:26;6.17;;;4.73;;
2966;SDS011;1493;51.496;7.210;2023-06-10T14:50:52;5.53;;;4.90;;
2966;SDS011;1493;51.496;7.210;2023-06-10T14:53:20;5.33;;;4.83;;
2966;SDS011;1493;51.496;7.210;2023-06-10T14:55:47;5.13;;;4.73;;
2966;SDS011;1493;51.496;7.210;2023-06-10T14:58:14;6.63;;;5.00;;
2966;SDS011;1493;51.496;7.210;2023-06-10T15:00:42;5.90;;;4.83;;
2966;SDS011;1493;51.496;7.210;2023-06-10T15:03:09;5.03;;;4.43;;
2966;SDS011;1493;51.496;7.210;2023-06-10T15:05:36;5.83;;;4.67;;
2966;SDS011;1493;51.496;7.210;2023-06-10T15:08:03;7.33;;;5.10;;
2966;SDS011;1493;51.496;7.210;2023-06-10T15:10:30;5.70;;;4.27;;
2966;SDS011;1493;51.496;7.210;2023-06-10T15:12:57;5.60;;;5.10;;
2966;SDS011;1493;51.496;7.210;2023-06-10T15:15:24;6.47;;;5.10;;
2966;SDS011;1493;51.496;7.210;2023-06-10T15:17:53;6.13;;;5.50;;
2966;SDS011;1493;51.496;7.210;2023-06-10T15:20:20;5.13;;;4.63;;
2966;SDS011;1493;51.496;7.210;2023-06-10T15:22:47;4.63;;;4.23;;
2966;SDS011;1493;51.496;7.210;2023-06-10T15:25:14;5.47;;;4.47;;
2966;SDS011;1493;51.496;7.210;2023-06-10T15:27:41;5.20;;;4.80;;